CES2820 ZSAM-ZSWX
Flight info
| Callsign | CES2820 |
|---|---|
| Flight time | 1h 9m |
| Altitude | 24600 |
| Route | DOVPU W643 FOC W644 AKAVO A470 TOL A599 KAKIS W135 NIVIK |
| Aircraft | A320/M-SDE2E3FGHIRWXY/LB2 |
Departure
| Time | 2026-05-08 05:58 |
|---|---|
| Airport | Xiamen Gaoqi International Airport (ZSAM) |
Arrival
| Time | 2026-05-08 07:07 |
|---|---|
| Airport | Sunan Shuofang International Airport (ZSWX) |
| Time | Latitude | Longitude | Altitude | Speed | Heading |
|---|---|---|---|---|---|
| 2026-05-08 05:41 | 24.53986 | 118.12867 | 45 ft | 0 kts | 142° |
| 2026-05-08 05:48 | 24.53996 | 118.12857 | 41 ft | 2 kts | 142° |
| 2026-05-08 05:48 | 24.54009 | 118.12846 | 40 ft | 2 kts | 140° |
| 2026-05-08 05:49 | 24.54022 | 118.12835 | 41 ft | 2 kts | 139° |
| 2026-05-08 05:49 | 24.54035 | 118.12824 | 42 ft | 2 kts | 145° |
| 2026-05-08 05:49 | 24.54049 | 118.12817 | 43 ft | 2 kts | 186° |
| 2026-05-08 05:49 | 24.54066 | 118.12821 | 40 ft | 2 kts | 251° |
| 2026-05-08 05:50 | 24.54071 | 118.12833 | 42 ft | 1 kts | 217° |
| 2026-05-08 05:50 | 24.54072 | 118.12833 | 42 ft | 0 kts | 223° |
| 2026-05-08 05:52 | 24.54070 | 118.12832 | 42 ft | 2 kts | 223° |
| 2026-05-08 05:52 | 24.54052 | 118.12807 | 42 ft | 7 kts | 232° |
| 2026-05-08 05:52 | 24.54015 | 118.12753 | 45 ft | 11 kts | 232° |
| 2026-05-08 05:52 | 24.53958 | 118.12674 | 45 ft | 14 kts | 232° |
| 2026-05-08 05:53 | 24.53913 | 118.12596 | 45 ft | 9 kts | 266° |
| 2026-05-08 05:53 | 24.53946 | 118.12548 | 45 ft | 7 kts | 324° |
| 2026-05-08 05:53 | 24.53985 | 118.12516 | 45 ft | 8 kts | 321° |
| 2026-05-08 05:53 | 24.53987 | 118.12460 | 45 ft | 9 kts | 237° |
| 2026-05-08 05:54 | 24.53945 | 118.12400 | 45 ft | 11 kts | 232° |
| 2026-05-08 05:54 | 24.53894 | 118.12327 | 45 ft | 13 kts | 232° |
| 2026-05-08 05:54 | 24.53829 | 118.12236 | 45 ft | 17 kts | 232° |
| 2026-05-08 05:54 | 24.53747 | 118.12120 | 43 ft | 21 kts | 232° |
| 2026-05-08 05:55 | 24.53651 | 118.11987 | 42 ft | 23 kts | 231° |
| 2026-05-08 05:55 | 24.53554 | 118.11853 | 44 ft | 22 kts | 232° |
| 2026-05-08 05:55 | 24.53463 | 118.11725 | 43 ft | 21 kts | 232° |
| 2026-05-08 05:55 | 24.53397 | 118.11618 | 45 ft | 12 kts | 256° |
| 2026-05-08 05:56 | 24.53410 | 118.11540 | 45 ft | 9 kts | 287° |
| 2026-05-08 05:56 | 24.53440 | 118.11488 | 45 ft | 8 kts | 321° |
| 2026-05-08 05:56 | 24.53485 | 118.11477 | 45 ft | 6 kts | 14° |
| 2026-05-08 05:56 | 24.53514 | 118.11504 | 45 ft | 5 kts | 52° |
| 2026-05-08 05:57 | 24.53569 | 118.11582 | 42 ft | 38 kts | 52° |
| 2026-05-08 05:57 | 24.53880 | 118.12018 | 41 ft | 103 kts | 52° |
| 2026-05-08 05:57 | 24.54422 | 118.12773 | 44 ft | 148 kts | 51° |
| 2026-05-08 05:57 | 24.55126 | 118.13747 | 393 ft | 165 kts | 53° |
| 2026-05-08 05:58 | 24.55851 | 118.14761 | 1007 ft | 170 kts | 51° |
| 2026-05-08 05:58 | 24.56583 | 118.15778 | 1832 ft | 169 kts | 50° |
| 2026-05-08 05:58 | 24.57338 | 118.16836 | 2380 ft | 186 kts | 53° |
| 2026-05-08 05:58 | 24.58181 | 118.18024 | 2811 ft | 209 kts | 52° |
| 2026-05-08 05:59 | 24.59128 | 118.19361 | 3383 ft | 234 kts | 53° |
| 2026-05-08 05:59 | 24.60167 | 118.20830 | 4068 ft | 252 kts | 52° |
| 2026-05-08 05:59 | 24.61282 | 118.22386 | 4787 ft | 267 kts | 49° |
| 2026-05-08 05:59 | 24.62643 | 118.23842 | 5525 ft | 278 kts | 41° |
| 2026-05-08 06:00 | 24.64084 | 118.25294 | 6395 ft | 284 kts | 41° |
| 2026-05-08 06:00 | 24.65553 | 118.26786 | 7206 ft | 289 kts | 41° |
| 2026-05-08 06:00 | 24.67036 | 118.28298 | 8025 ft | 294 kts | 41° |
| 2026-05-08 06:00 | 24.68541 | 118.29840 | 8864 ft | 298 kts | 41° |
| 2026-05-08 06:01 | 24.70066 | 118.31403 | 9738 ft | 301 kts | 41° |
| 2026-05-08 06:01 | 24.71612 | 118.32991 | 10340 ft | 313 kts | 41° |
| 2026-05-08 06:01 | 24.73267 | 118.34684 | 10546 ft | 336 kts | 41° |
| 2026-05-08 06:01 | 24.74981 | 118.36521 | 11010 ft | 348 kts | 44° |
| 2026-05-08 06:02 | 24.76668 | 118.38468 | 11736 ft | 355 kts | 45° |
| 2026-05-08 06:02 | 24.78348 | 118.40489 | 12483 ft | 360 kts | 46° |
| 2026-05-08 06:02 | 24.80034 | 118.42544 | 13169 ft | 363 kts | 46° |
| 2026-05-08 06:02 | 24.81739 | 118.44613 | 13832 ft | 368 kts | 46° |
| 2026-05-08 06:03 | 24.83477 | 118.46709 | 14434 ft | 371 kts | 46° |
| 2026-05-08 06:03 | 24.85216 | 118.48786 | 14970 ft | 375 kts | 46° |
| 2026-05-08 06:03 | 24.87004 | 118.50908 | 15512 ft | 379 kts | 45° |
| 2026-05-08 06:03 | 24.88809 | 118.53035 | 16065 ft | 383 kts | 45° |
| 2026-05-08 06:04 | 24.90642 | 118.55178 | 16619 ft | 386 kts | 45° |
| 2026-05-08 06:04 | 24.92497 | 118.57339 | 17168 ft | 390 kts | 45° |
| 2026-05-08 06:04 | 24.94372 | 118.59523 | 17704 ft | 394 kts | 45° |
| 2026-05-08 06:04 | 24.96261 | 118.61728 | 18231 ft | 397 kts | 44° |
| 2026-05-08 06:05 | 24.98167 | 118.63956 | 18698 ft | 401 kts | 44° |
| 2026-05-08 06:05 | 25.00082 | 118.66197 | 19160 ft | 403 kts | 44° |
| 2026-05-08 06:05 | 25.02011 | 118.68462 | 19658 ft | 407 kts | 44° |
| 2026-05-08 06:05 | 25.03956 | 118.70750 | 20139 ft | 409 kts | 44° |
| 2026-05-08 06:06 | 25.05907 | 118.73043 | 20613 ft | 412 kts | 44° |
| 2026-05-08 06:06 | 25.07877 | 118.75358 | 21080 ft | 414 kts | 44° |
| 2026-05-08 06:06 | 25.09855 | 118.77681 | 21582 ft | 417 kts | 44° |
| 2026-05-08 06:06 | 25.11849 | 118.80021 | 22039 ft | 419 kts | 44° |
| 2026-05-08 06:07 | 25.13845 | 118.82366 | 22479 ft | 422 kts | 44° |
| 2026-05-08 06:07 | 25.15862 | 118.84741 | 22977 ft | 425 kts | 44° |
| 2026-05-08 06:07 | 25.17890 | 118.87128 | 23420 ft | 427 kts | 44° |
| 2026-05-08 06:07 | 25.19930 | 118.89536 | 23806 ft | 430 kts | 44° |
| 2026-05-08 06:08 | 25.21977 | 118.91949 | 24163 ft | 433 kts | 44° |
| 2026-05-08 06:08 | 25.24046 | 118.94390 | 24521 ft | 435 kts | 44° |
| 2026-05-08 06:08 | 25.26087 | 118.96799 | 24638 ft | 435 kts | 44° |
| 2026-05-08 06:08 | 25.28125 | 118.99205 | 24670 ft | 425 kts | 43° |
| 2026-05-08 06:09 | 25.30146 | 119.01567 | 24670 ft | 421 kts | 43° |
| 2026-05-08 06:09 | 25.32166 | 119.03913 | 24672 ft | 420 kts | 43° |
| 2026-05-08 06:09 | 25.34183 | 119.06251 | 24678 ft | 420 kts | 43° |
| 2026-05-08 06:09 | 25.36205 | 119.08594 | 24677 ft | 420 kts | 43° |
| 2026-05-08 06:10 | 25.38255 | 119.10970 | 24685 ft | 435 kts | 43° |
| 2026-05-08 06:10 | 25.40378 | 119.13429 | 24685 ft | 449 kts | 43° |
| 2026-05-08 06:10 | 25.42565 | 119.15968 | 24681 ft | 460 kts | 43° |
| 2026-05-08 06:10 | 25.44785 | 119.18553 | 24692 ft | 465 kts | 43° |
| 2026-05-08 06:11 | 25.47014 | 119.21157 | 24692 ft | 466 kts | 44° |
| 2026-05-08 06:11 | 25.49237 | 119.23765 | 24683 ft | 467 kts | 44° |
| 2026-05-08 06:11 | 25.51460 | 119.26378 | 24686 ft | 467 kts | 44° |
| 2026-05-08 06:11 | 25.53693 | 119.29000 | 24683 ft | 467 kts | 44° |
| 2026-05-08 06:12 | 25.55920 | 119.31616 | 24701 ft | 467 kts | 44° |
| 2026-05-08 06:12 | 25.58141 | 119.34232 | 24703 ft | 467 kts | 44° |
| 2026-05-08 06:12 | 25.60361 | 119.36851 | 24698 ft | 467 kts | 44° |
| 2026-05-08 06:12 | 25.62588 | 119.39478 | 24708 ft | 467 kts | 44° |
| 2026-05-08 06:13 | 25.64802 | 119.42098 | 24697 ft | 467 kts | 44° |
| 2026-05-08 06:13 | 25.67022 | 119.44731 | 24697 ft | 467 kts | 44° |
| 2026-05-08 06:13 | 25.69237 | 119.47356 | 24701 ft | 466 kts | 44° |
| 2026-05-08 06:13 | 25.71455 | 119.49985 | 24704 ft | 467 kts | 44° |
| 2026-05-08 06:14 | 25.73643 | 119.52582 | 24704 ft | 467 kts | 44° |
| 2026-05-08 06:14 | 25.75877 | 119.55201 | 24700 ft | 466 kts | 41° |
| 2026-05-08 06:14 | 25.78342 | 119.57492 | 24702 ft | 461 kts | 32° |
| 2026-05-08 06:14 | 25.81082 | 119.59314 | 24698 ft | 457 kts | 23° |
| 2026-05-08 06:15 | 25.83917 | 119.60918 | 24701 ft | 457 kts | 23° |
| 2026-05-08 06:15 | 25.86746 | 119.62527 | 24703 ft | 457 kts | 24° |
| 2026-05-08 06:15 | 25.89577 | 119.64147 | 24703 ft | 458 kts | 24° |
| 2026-05-08 06:15 | 25.92409 | 119.65772 | 24702 ft | 458 kts | 24° |
| 2026-05-08 06:16 | 25.95241 | 119.67382 | 24711 ft | 458 kts | 23° |
| 2026-05-08 06:16 | 25.98100 | 119.68992 | 24718 ft | 459 kts | 23° |
| 2026-05-08 06:16 | 26.00953 | 119.70592 | 24718 ft | 459 kts | 23° |
| 2026-05-08 06:16 | 26.03800 | 119.72180 | 24718 ft | 458 kts | 22° |
| 2026-05-08 06:17 | 26.09793 | 119.74221 | 24709 ft | 447 kts | 3° |
| 2026-05-08 06:17 | 26.12882 | 119.74401 | 24707 ft | 442 kts | 354° |
| 2026-05-08 06:17 | 26.14913 | 119.74283 | 24701 ft | 441 kts | 353° |
| 2026-05-08 06:18 | 26.18973 | 119.74026 | 24703 ft | 442 kts | 353° |
| 2026-05-08 06:18 | 26.21043 | 119.73896 | 24702 ft | 442 kts | 353° |
| 2026-05-08 06:18 | 26.25150 | 119.73642 | 24702 ft | 442 kts | 353° |
| 2026-05-08 06:18 | 26.27184 | 119.73515 | 24711 ft | 442 kts | 353° |
| 2026-05-08 06:19 | 26.30259 | 119.73322 | 24708 ft | 442 kts | 353° |
| 2026-05-08 06:19 | 26.33328 | 119.73129 | 24710 ft | 442 kts | 353° |
| 2026-05-08 06:19 | 26.36405 | 119.72936 | 24713 ft | 442 kts | 353° |
| 2026-05-08 06:19 | 26.39474 | 119.72744 | 24717 ft | 442 kts | 353° |
| 2026-05-08 06:20 | 26.42546 | 119.72552 | 24716 ft | 442 kts | 353° |
| 2026-05-08 06:20 | 26.45624 | 119.72359 | 24721 ft | 443 kts | 352° |
| 2026-05-08 06:20 | 26.48705 | 119.72215 | 24722 ft | 444 kts | 354° |
| 2026-05-08 06:20 | 26.51794 | 119.72201 | 24722 ft | 445 kts | 356° |
| 2026-05-08 06:21 | 26.54895 | 119.72284 | 24720 ft | 445 kts | 357° |
| 2026-05-08 06:21 | 26.57989 | 119.72413 | 24720 ft | 445 kts | 358° |
| 2026-05-08 06:21 | 26.61084 | 119.72544 | 24721 ft | 445 kts | 358° |
| 2026-05-08 06:21 | 26.64144 | 119.72655 | 24721 ft | 445 kts | 357° |
| 2026-05-08 06:22 | 26.67244 | 119.72742 | 24725 ft | 445 kts | 356° |
| 2026-05-08 06:22 | 26.70334 | 119.72805 | 24730 ft | 445 kts | 356° |
| 2026-05-08 06:22 | 26.73431 | 119.72858 | 24722 ft | 445 kts | 356° |
| 2026-05-08 06:22 | 26.76534 | 119.72913 | 24721 ft | 445 kts | 356° |
| 2026-05-08 06:23 | 26.79619 | 119.72972 | 24721 ft | 444 kts | 356° |
| 2026-05-08 06:23 | 26.82716 | 119.73036 | 24720 ft | 445 kts | 356° |
| 2026-05-08 06:23 | 26.85820 | 119.73103 | 24720 ft | 445 kts | 356° |
| 2026-05-08 06:23 | 26.88910 | 119.73172 | 24719 ft | 445 kts | 356° |
| 2026-05-08 06:24 | 26.92013 | 119.73241 | 24719 ft | 444 kts | 356° |
| 2026-05-08 06:24 | 26.95103 | 119.73304 | 24718 ft | 444 kts | 355° |
| 2026-05-08 06:24 | 26.98158 | 119.73036 | 24719 ft | 436 kts | 345° |
| 2026-05-08 06:24 | 27.01074 | 119.72188 | 24716 ft | 429 kts | 335° |
| 2026-05-08 06:25 | 27.03739 | 119.70842 | 24715 ft | 423 kts | 326° |
| 2026-05-08 06:25 | 27.06247 | 119.69147 | 24715 ft | 422 kts | 324° |
| 2026-05-08 06:25 | 27.08763 | 119.67427 | 24713 ft | 422 kts | 324° |
| 2026-05-08 06:25 | 27.11275 | 119.65709 | 24719 ft | 422 kts | 324° |
| 2026-05-08 06:26 | 27.13779 | 119.63995 | 24716 ft | 422 kts | 324° |
| 2026-05-08 06:26 | 27.16294 | 119.62274 | 24716 ft | 422 kts | 324° |
| 2026-05-08 06:26 | 27.18795 | 119.60559 | 24717 ft | 422 kts | 324° |
| 2026-05-08 06:26 | 27.21298 | 119.58842 | 24718 ft | 421 kts | 323° |
| 2026-05-08 06:27 | 27.23854 | 119.57221 | 24716 ft | 425 kts | 330° |
| 2026-05-08 06:27 | 27.26675 | 119.56097 | 24717 ft | 433 kts | 341° |
| 2026-05-08 06:27 | 27.29676 | 119.55600 | 24717 ft | 441 kts | 352° |
| 2026-05-08 06:27 | 27.32763 | 119.55580 | 24719 ft | 443 kts | 354° |
| 2026-05-08 06:28 | 27.35810 | 119.55594 | 24720 ft | 443 kts | 354° |
| 2026-05-08 06:28 | 27.38939 | 119.55611 | 24722 ft | 444 kts | 354° |
| 2026-05-08 06:28 | 27.41979 | 119.55624 | 24723 ft | 444 kts | 354° |
| 2026-05-08 06:28 | 27.45071 | 119.55634 | 24724 ft | 444 kts | 354° |
| 2026-05-08 06:29 | 27.48154 | 119.55644 | 24731 ft | 444 kts | 354° |
| 2026-05-08 06:29 | 27.51255 | 119.55656 | 24737 ft | 444 kts | 354° |
| 2026-05-08 06:29 | 27.54349 | 119.55668 | 24743 ft | 444 kts | 354° |
| 2026-05-08 06:29 | 27.57440 | 119.55682 | 24745 ft | 444 kts | 354° |
| 2026-05-08 06:30 | 27.60536 | 119.55697 | 24746 ft | 444 kts | 354° |
| 2026-05-08 06:30 | 27.63628 | 119.55715 | 24746 ft | 443 kts | 354° |
| 2026-05-08 06:30 | 27.66710 | 119.55736 | 24748 ft | 443 kts | 354° |
| 2026-05-08 06:30 | 27.69796 | 119.55758 | 24749 ft | 443 kts | 354° |
| 2026-05-08 06:31 | 27.72874 | 119.55778 | 24749 ft | 443 kts | 354° |
| 2026-05-08 06:31 | 27.75968 | 119.55796 | 24758 ft | 445 kts | 354° |
| 2026-05-08 06:31 | 27.79070 | 119.55813 | 24765 ft | 445 kts | 354° |
| 2026-05-08 06:31 | 27.82158 | 119.55832 | 24765 ft | 444 kts | 354° |
| 2026-05-08 06:32 | 27.85214 | 119.55852 | 24764 ft | 443 kts | 354° |
| 2026-05-08 06:32 | 27.88287 | 119.55867 | 24768 ft | 443 kts | 354° |
| 2026-05-08 06:32 | 27.91372 | 119.55882 | 24772 ft | 443 kts | 354° |
| 2026-05-08 06:32 | 27.94467 | 119.55903 | 24773 ft | 443 kts | 354° |
| 2026-05-08 06:33 | 27.97557 | 119.55943 | 24776 ft | 444 kts | 354° |
| 2026-05-08 06:33 | 28.00650 | 119.55997 | 24777 ft | 444 kts | 354° |
| 2026-05-08 06:33 | 28.03733 | 119.56056 | 24783 ft | 444 kts | 354° |
| 2026-05-08 06:33 | 28.06821 | 119.56111 | 24783 ft | 444 kts | 354° |
| 2026-05-08 06:34 | 28.09919 | 119.56162 | 24788 ft | 444 kts | 354° |
| 2026-05-08 06:34 | 28.13007 | 119.56246 | 24790 ft | 445 kts | 355° |
| 2026-05-08 06:34 | 28.16100 | 119.56396 | 24795 ft | 446 kts | 356° |
| 2026-05-08 06:34 | 28.19198 | 119.56587 | 24796 ft | 446 kts | 356° |
| 2026-05-08 06:35 | 28.22292 | 119.56793 | 24796 ft | 446 kts | 356° |
| 2026-05-08 06:35 | 28.25390 | 119.56996 | 24797 ft | 446 kts | 356° |
| 2026-05-08 06:35 | 28.28482 | 119.57187 | 24801 ft | 445 kts | 356° |
| 2026-05-08 06:35 | 28.31583 | 119.57365 | 24801 ft | 445 kts | 356° |
| 2026-05-08 06:36 | 28.34678 | 119.57534 | 24809 ft | 446 kts | 356° |
| 2026-05-08 06:36 | 28.37784 | 119.57700 | 24810 ft | 446 kts | 355° |
| 2026-05-08 06:36 | 28.40886 | 119.57866 | 24816 ft | 446 kts | 355° |
| 2026-05-08 06:36 | 28.43984 | 119.58033 | 24817 ft | 446 kts | 356° |
| 2026-05-08 06:37 | 28.47081 | 119.58203 | 24815 ft | 445 kts | 356° |
| 2026-05-08 06:37 | 28.50176 | 119.58382 | 24807 ft | 445 kts | 356° |
| 2026-05-08 06:37 | 28.53226 | 119.58572 | 24807 ft | 445 kts | 356° |
| 2026-05-08 06:37 | 28.56321 | 119.58773 | 24805 ft | 445 kts | 356° |
| 2026-05-08 06:38 | 28.59453 | 119.58978 | 24811 ft | 445 kts | 356° |
| 2026-05-08 06:38 | 28.62512 | 119.59175 | 24815 ft | 445 kts | 356° |
| 2026-05-08 06:38 | 28.65602 | 119.59369 | 24818 ft | 445 kts | 356° |
| 2026-05-08 06:38 | 28.68695 | 119.59558 | 24819 ft | 445 kts | 356° |
| 2026-05-08 06:39 | 28.71786 | 119.59743 | 24819 ft | 445 kts | 356° |
| 2026-05-08 06:39 | 28.74888 | 119.59931 | 24816 ft | 445 kts | 356° |
| 2026-05-08 06:39 | 28.77981 | 119.60122 | 24818 ft | 445 kts | 356° |
| 2026-05-08 06:39 | 28.81070 | 119.60315 | 24820 ft | 445 kts | 356° |
| 2026-05-08 06:40 | 28.84175 | 119.60509 | 24818 ft | 445 kts | 356° |
| 2026-05-08 06:40 | 28.87274 | 119.60702 | 24817 ft | 445 kts | 356° |
| 2026-05-08 06:40 | 28.90365 | 119.60896 | 24820 ft | 445 kts | 355° |
| 2026-05-08 06:40 | 28.93458 | 119.61088 | 24823 ft | 446 kts | 356° |
| 2026-05-08 06:41 | 28.96559 | 119.61278 | 24821 ft | 446 kts | 356° |
| 2026-05-08 06:41 | 28.99664 | 119.61470 | 24821 ft | 445 kts | 356° |
| 2026-05-08 06:41 | 29.02755 | 119.61663 | 24819 ft | 445 kts | 356° |
| 2026-05-08 06:41 | 29.05849 | 119.61857 | 24821 ft | 445 kts | 356° |
| 2026-05-08 06:42 | 29.08946 | 119.62053 | 24825 ft | 445 kts | 356° |
| 2026-05-08 06:42 | 29.12037 | 119.62244 | 24824 ft | 445 kts | 356° |
| 2026-05-08 06:42 | 29.15094 | 119.62430 | 24822 ft | 445 kts | 356° |
| 2026-05-08 06:42 | 29.18194 | 119.62618 | 24824 ft | 446 kts | 356° |
| 2026-05-08 06:43 | 29.21285 | 119.62804 | 24822 ft | 446 kts | 355° |
| 2026-05-08 06:43 | 29.24381 | 119.62990 | 24824 ft | 446 kts | 355° |
| 2026-05-08 06:43 | 29.27484 | 119.63179 | 24821 ft | 445 kts | 356° |
| 2026-05-08 06:43 | 29.30574 | 119.63370 | 24820 ft | 446 kts | 356° |
| 2026-05-08 06:44 | 29.33669 | 119.63562 | 24820 ft | 446 kts | 356° |
| 2026-05-08 06:44 | 29.36767 | 119.63753 | 24820 ft | 446 kts | 356° |
| 2026-05-08 06:44 | 29.39865 | 119.63940 | 24820 ft | 446 kts | 356° |
| 2026-05-08 06:44 | 29.42963 | 119.64125 | 24818 ft | 446 kts | 355° |
| 2026-05-08 06:45 | 29.46057 | 119.64311 | 24820 ft | 446 kts | 356° |
| 2026-05-08 06:45 | 29.49161 | 119.64501 | 24817 ft | 446 kts | 356° |
| 2026-05-08 06:45 | 29.52251 | 119.64692 | 24822 ft | 446 kts | 356° |
| 2026-05-08 06:45 | 29.55361 | 119.64881 | 24817 ft | 446 kts | 355° |
| 2026-05-08 06:46 | 29.58449 | 119.65023 | 24817 ft | 445 kts | 354° |
| 2026-05-08 06:46 | 29.61553 | 119.65111 | 24814 ft | 444 kts | 354° |
| 2026-05-08 06:46 | 29.64633 | 119.65186 | 24813 ft | 445 kts | 354° |
| 2026-05-08 06:46 | 29.67733 | 119.65326 | 24819 ft | 446 kts | 355° |
| 2026-05-08 06:47 | 29.70836 | 119.65527 | 24817 ft | 446 kts | 356° |
| 2026-05-08 06:47 | 29.73906 | 119.65874 | 24814 ft | 453 kts | 3° |
| 2026-05-08 06:47 | 29.76970 | 119.66832 | 24820 ft | 462 kts | 14° |
| 2026-05-08 06:47 | 29.79905 | 119.68416 | 24813 ft | 471 kts | 24° |
| 2026-05-08 06:48 | 29.82737 | 119.70325 | 24813 ft | 471 kts | 24° |
| 2026-05-08 06:48 | 29.85580 | 119.72232 | 24818 ft | 471 kts | 24° |
| 2026-05-08 06:48 | 29.88419 | 119.74126 | 24820 ft | 471 kts | 24° |
| 2026-05-08 06:48 | 29.91258 | 119.76019 | 24818 ft | 471 kts | 24° |
| 2026-05-08 06:49 | 29.94090 | 119.77915 | 24825 ft | 471 kts | 24° |
| 2026-05-08 06:49 | 29.96929 | 119.79821 | 24822 ft | 471 kts | 24° |
| 2026-05-08 06:49 | 29.99759 | 119.81727 | 24820 ft | 471 kts | 24° |
| 2026-05-08 06:49 | 30.02584 | 119.83632 | 24823 ft | 471 kts | 25° |
| 2026-05-08 06:50 | 30.05416 | 119.85545 | 24825 ft | 471 kts | 25° |
| 2026-05-08 06:50 | 30.08236 | 119.87451 | 24825 ft | 471 kts | 25° |
| 2026-05-08 06:50 | 30.11066 | 119.89364 | 24822 ft | 471 kts | 25° |
| 2026-05-08 06:50 | 30.13896 | 119.91275 | 24820 ft | 470 kts | 25° |
| 2026-05-08 06:51 | 30.16716 | 119.93178 | 24824 ft | 471 kts | 25° |
| 2026-05-08 06:51 | 30.19492 | 119.95053 | 24821 ft | 470 kts | 25° |
| 2026-05-08 06:51 | 30.22323 | 119.96970 | 24820 ft | 471 kts | 25° |
| 2026-05-08 06:51 | 30.25144 | 119.98883 | 24820 ft | 471 kts | 25° |
| 2026-05-08 06:52 | 30.27985 | 120.00812 | 24818 ft | 471 kts | 25° |
| 2026-05-08 06:52 | 30.30803 | 120.02731 | 24818 ft | 471 kts | 25° |
| 2026-05-08 06:52 | 30.33610 | 120.04643 | 24818 ft | 471 kts | 25° |
| 2026-05-08 06:52 | 30.36465 | 120.06587 | 24817 ft | 471 kts | 25° |
| 2026-05-08 06:53 | 30.39244 | 120.08479 | 24812 ft | 471 kts | 25° |
| 2026-05-08 06:53 | 30.42078 | 120.10294 | 24794 ft | 455 kts | 18° |
| 2026-05-08 06:53 | 30.45040 | 120.11370 | 24797 ft | 441 kts | 4° |
| 2026-05-08 06:53 | 30.48043 | 120.11631 | 24801 ft | 429 kts | 351° |
| 2026-05-08 06:54 | 30.50957 | 120.11128 | 24797 ft | 418 kts | 338° |
| 2026-05-08 06:54 | 30.53636 | 120.09948 | 24797 ft | 408 kts | 326° |
| 2026-05-08 06:54 | 30.56000 | 120.08199 | 24796 ft | 401 kts | 318° |
| 2026-05-08 06:54 | 30.58260 | 120.06281 | 24795 ft | 402 kts | 318° |
| 2026-05-08 06:55 | 30.60518 | 120.04368 | 24796 ft | 402 kts | 318° |
| 2026-05-08 06:55 | 30.62778 | 120.02455 | 24799 ft | 402 kts | 318° |
| 2026-05-08 06:55 | 30.65029 | 120.00544 | 24540 ft | 399 kts | 318° |
| 2026-05-08 06:55 | 30.67260 | 119.98651 | 24066 ft | 393 kts | 319° |
| 2026-05-08 06:56 | 30.69460 | 119.96783 | 23469 ft | 391 kts | 318° |
| 2026-05-08 06:56 | 30.71655 | 119.94928 | 22863 ft | 389 kts | 320° |
| 2026-05-08 06:56 | 30.74109 | 119.93522 | 22219 ft | 399 kts | 338° |
| 2026-05-08 06:56 | 30.76883 | 119.93088 | 21596 ft | 412 kts | 356° |
| 2026-05-08 06:57 | 30.79730 | 119.93765 | 20979 ft | 424 kts | 17° |
| 2026-05-08 06:57 | 30.82344 | 119.95396 | 20378 ft | 429 kts | 26° |
| 2026-05-08 06:57 | 30.84905 | 119.97201 | 19787 ft | 429 kts | 27° |
| 2026-05-08 06:57 | 30.87407 | 119.98994 | 19219 ft | 428 kts | 27° |
| 2026-05-08 06:58 | 30.89969 | 120.00840 | 18655 ft | 426 kts | 27° |
| 2026-05-08 06:58 | 30.92460 | 120.02633 | 18039 ft | 424 kts | 27° |
| 2026-05-08 06:58 | 30.94961 | 120.04422 | 17378 ft | 417 kts | 28° |
| 2026-05-08 06:58 | 30.97384 | 120.06145 | 16739 ft | 399 kts | 27° |
| 2026-05-08 06:59 | 30.99704 | 120.07786 | 16130 ft | 382 kts | 28° |
| 2026-05-08 06:59 | 31.01929 | 120.09356 | 15534 ft | 367 kts | 28° |
| 2026-05-08 06:59 | 31.04074 | 120.10867 | 14936 ft | 355 kts | 28° |
| 2026-05-08 06:59 | 31.06153 | 120.12330 | 14350 ft | 344 kts | 28° |
| 2026-05-08 07:00 | 31.08179 | 120.13756 | 13754 ft | 335 kts | 29° |
| 2026-05-08 07:00 | 31.10150 | 120.15145 | 13112 ft | 327 kts | 29° |
| 2026-05-08 07:00 | 31.12075 | 120.16504 | 12484 ft | 320 kts | 29° |
| 2026-05-08 07:00 | 31.13939 | 120.17823 | 12080 ft | 307 kts | 30° |
| 2026-05-08 07:01 | 31.15746 | 120.19103 | 11518 ft | 301 kts | 30° |
| 2026-05-08 07:01 | 31.17529 | 120.20365 | 10922 ft | 298 kts | 30° |
| 2026-05-08 07:01 | 31.19295 | 120.21616 | 10323 ft | 295 kts | 30° |
| 2026-05-08 07:01 | 31.20989 | 120.22817 | 9737 ft | 291 kts | 30° |
| 2026-05-08 07:02 | 31.22705 | 120.24033 | 9144 ft | 286 kts | 31° |
| 2026-05-08 07:02 | 31.24336 | 120.25192 | 8928 ft | 269 kts | 31° |
| 2026-05-08 07:02 | 31.25902 | 120.26319 | 8511 ft | 262 kts | 34° |
| 2026-05-08 07:02 | 31.27326 | 120.27631 | 7884 ft | 263 kts | 43° |
| 2026-05-08 07:03 | 31.28586 | 120.29219 | 7072 ft | 270 kts | 49° |
| 2026-05-08 07:03 | 31.29828 | 120.30897 | 6328 ft | 274 kts | 49° |
| 2026-05-08 07:03 | 31.31081 | 120.32583 | 5567 ft | 275 kts | 50° |
| 2026-05-08 07:03 | 31.32337 | 120.34266 | 4796 ft | 275 kts | 50° |
| 2026-05-08 07:04 | 31.33703 | 120.35839 | 4019 ft | 277 kts | 38° |
| 2026-05-08 07:04 | 31.34801 | 120.36618 | 3519 ft | 280 kts | 26° |
| 2026-05-08 07:04 | 31.36641 | 120.37435 | 2746 ft | 286 kts | 20° |
| 2026-05-08 07:04 | 31.38501 | 120.38224 | 2137 ft | 279 kts | 21° |
| 2026-05-08 07:05 | 31.40275 | 120.38986 | 1752 ft | 264 kts | 21° |
| 2026-05-08 07:05 | 31.42419 | 120.39908 | 1299 ft | 230 kts | 21° |
| 2026-05-08 07:05 | 31.43837 | 120.40516 | 1006 ft | 206 kts | 21° |
| 2026-05-08 07:05 | 31.45123 | 120.41070 | 761 ft | 186 kts | 21° |
| 2026-05-08 07:06 | 31.45912 | 120.41409 | 608 ft | 172 kts | 21° |
| 2026-05-08 07:06 | 31.46955 | 120.41857 | 376 ft | 148 kts | 21° |
| 2026-05-08 07:06 | 31.47876 | 120.42255 | 162 ft | 139 kts | 22° |
| 2026-05-08 07:06 | 31.48776 | 120.42640 | 34 ft | 134 kts | 24° |
| 2026-05-08 07:07 | 31.49524 | 120.42970 | 26 ft | 91 kts | 20° |
| 2026-05-08 07:07 | 31.49959 | 120.43156 | 25 ft | 42 kts | 17° |
| 2026-05-08 07:07 | 31.50111 | 120.43165 | 26 ft | 15 kts | 360° |
| 2026-05-08 07:07 | 31.50174 | 120.43158 | 26 ft | 16 kts | 353° |
| 2026-05-08 07:12 | 31.50205 | 120.43154 | 28 ft | 17 kts | 353° |
| 2026-05-08 07:12 | 31.50288 | 120.43100 | 26 ft | 10 kts | 297° |
| 2026-05-08 07:13 | 31.50317 | 120.43010 | 26 ft | 9 kts | 291° |
| 2026-05-08 07:13 | 31.50374 | 120.42991 | 30 ft | 10 kts | 11° |
| 2026-05-08 07:13 | 31.50448 | 120.43026 | 27 ft | 13 kts | 20° |
| 2026-05-08 07:13 | 31.50543 | 120.43068 | 29 ft | 16 kts | 20° |
| 2026-05-08 07:14 | 31.50615 | 120.43096 | 28 ft | 8 kts | 5° |
| 2026-05-08 07:14 | 31.50641 | 120.43063 | 28 ft | 2 kts | 262° |
| 2026-05-08 07:14 | 31.50648 | 120.43041 | 27 ft | 4 kts | 291° |
| 2026-05-08 07:14 | 31.50653 | 120.43024 | 29 ft | 0 kts | 291° |